createdAt,value
2023-05-08T00:01:25.712Z,101723.04
2023-05-08T00:03:55.149Z,101723.50
2023-05-08T00:06:24.053Z,101722.20
2023-05-08T00:08:52.393Z,101723.35
2023-05-08T00:11:21.199Z,101729.27
2023-05-08T00:13:49.469Z,101729.77
2023-05-08T00:16:17.803Z,101732.58
2023-05-08T00:18:47.165Z,101731.63
2023-05-08T00:21:15.438Z,101736.32
2023-05-08T00:23:43.734Z,101739.85
2023-05-08T00:26:12.267Z,101743.71
2023-05-08T00:28:40.408Z,101745.46
2023-05-08T00:31:08.863Z,101744.53
2023-05-08T00:33:37.474Z,101744.33
2023-05-08T00:36:06.174Z,101745.52
2023-05-08T00:38:36.328Z,101752.94
2023-05-08T00:41:04.666Z,101757.11
2023-05-08T00:43:33.766Z,101756.25
2023-05-08T00:46:02.469Z,101754.18
2023-05-08T00:48:34.394Z,101751.64
2023-05-08T00:51:06.186Z,101743.07
2023-05-08T00:53:39.036Z,101735.69
2023-05-08T00:56:12.162Z,101736.31
2023-05-08T00:58:41.270Z,101734.33
2023-05-08T01:01:10.734Z,101732.39
2023-05-08T01:03:39.872Z,101734.16
2023-05-08T01:06:08.676Z,101734.13
2023-05-08T01:08:36.837Z,101739.23
2023-05-08T01:11:49.955Z,101734.17
2023-05-08T01:14:36.434Z,101727.48
2023-05-08T01:17:04.952Z,101723.02
2023-05-08T01:20:06.553Z,101717.33
2023-05-08T01:22:43.670Z,101722.95
2023-05-08T01:25:49.355Z,101725.75
2023-05-08T01:28:47.262Z,101730.77
2023-05-08T01:31:21.339Z,101727.94
2023-05-08T01:34:12.281Z,101733.59
2023-05-08T01:36:44.147Z,101732.56
2023-05-08T01:39:32.070Z,101734.91
2023-05-08T01:42:03.324Z,101734.39
2023-05-08T01:44:39.510Z,101734.95
2023-05-08T01:47:11.886Z,101740.41
2023-05-08T01:49:45.377Z,101737.25
2023-05-08T01:52:34.718Z,101734.66
2023-05-08T01:55:10.286Z,101736.33
2023-05-08T01:57:43.989Z,101728.41
2023-05-08T02:00:12.716Z,101728.02
2023-05-08T02:02:42.349Z,101727.69
2023-05-08T02:05:12.307Z,101728.30
2023-05-08T02:07:43.498Z,101729.23
2023-05-08T02:10:14.072Z,101734.71
2023-05-08T02:12:45.058Z,101726.77
2023-05-08T02:15:15.447Z,101728.84
2023-05-08T02:17:47.057Z,101723.19
2023-05-08T02:20:16.527Z,101720.22
2023-05-08T02:22:49.423Z,101722.80
2023-05-08T02:25:19.289Z,101719.40
2023-05-08T02:27:49.765Z,101721.76
2023-05-08T02:30:22.250Z,101717.20
2023-05-08T02:32:53.718Z,101716.08
2023-05-08T02:35:25.380Z,101716.75
2023-05-08T02:37:56.330Z,101718.24
2023-05-08T02:40:28.265Z,101718.08
2023-05-08T02:42:57.409Z,101721.91
2023-05-08T02:45:32.957Z,101726.46
2023-05-08T02:48:14.260Z,101727.33
2023-05-08T02:50:51.579Z,101733.27
2023-05-08T02:53:34.608Z,101735.13
2023-05-08T02:56:12.500Z,101740.98
2023-05-08T02:58:46.162Z,101745.74
2023-05-08T03:01:30.344Z,101747.42
2023-05-08T03:04:09.627Z,101743.88
2023-05-08T03:06:45.895Z,101745.95
2023-05-08T03:09:21.729Z,101747.83
2023-05-08T03:11:58.503Z,101751.92
2023-05-08T03:14:30.479Z,101751.44
2023-05-08T03:17:01.287Z,101751.13
2023-05-08T03:19:36.160Z,101753.95
2023-05-08T03:22:09.060Z,101753.81
2023-05-08T03:24:40.207Z,101754.23
2023-05-08T03:27:10.033Z,101755.59
2023-05-08T03:29:40.183Z,101758.24
2023-05-08T03:32:09.703Z,101755.65
2023-05-08T03:34:40.933Z,101759.65
2023-05-08T03:37:09.334Z,101759.89
2023-05-08T03:39:38.334Z,101760.09
2023-05-08T03:42:06.746Z,101761.22
2023-05-08T03:44:35.536Z,101760.70
2023-05-08T03:47:05.839Z,101762.33
2023-05-08T03:49:36.676Z,101763.34
2023-05-08T03:52:05.898Z,101769.55
2023-05-08T03:54:34.371Z,101771.96
2023-05-08T03:57:02.769Z,101774.94
2023-05-08T03:59:46.496Z,101771.95
2023-05-08T04:02:21.203Z,101773.92
2023-05-08T04:04:56.158Z,101778.67
2023-05-08T04:07:29.156Z,101781.04
2023-05-08T04:10:26.497Z,101784.36
2023-05-08T04:13:14.679Z,101792.95
2023-05-08T04:15:53.758Z,101791.67
2023-05-08T04:18:28.505Z,101797.75
2023-05-08T04:21:00.048Z,101798.63
2023-05-08T04:23:30.193Z,101799.22
2023-05-08T04:26:02.000Z,101799.98
2023-05-08T04:28:31.514Z,101800.91
2023-05-08T04:31:03.023Z,101800.44
2023-05-08T04:33:31.693Z,101806.65
2023-05-08T04:36:02.711Z,101809.84
2023-05-08T04:38:37.916Z,101813.79
2023-05-08T04:41:08.030Z,101813.54
2023-05-08T04:43:37.270Z,101812.46
2023-05-08T04:46:06.649Z,101817.66
2023-05-08T04:48:35.515Z,101822.45
2023-05-08T04:51:04.103Z,101822.30
2023-05-08T04:53:32.863Z,101822.61
2023-05-08T04:56:04.325Z,101827.61
2023-05-08T04:58:33.050Z,101824.97
2023-05-08T05:01:05.282Z,101824.48
2023-05-08T05:03:34.345Z,101823.84
2023-05-08T05:06:03.301Z,101826.17
2023-05-08T05:08:31.618Z,101826.42
2023-05-08T05:11:00.178Z,101831.11
2023-05-08T05:13:30.742Z,101836.80
2023-05-08T05:16:00.552Z,101841.71
2023-05-08T05:18:29.128Z,101844.12
2023-05-08T05:21:00.777Z,101845.59
2023-05-08T05:23:30.712Z,101845.50
2023-05-08T05:25:59.190Z,101844.83
2023-05-08T05:28:28.281Z,101845.89
2023-05-08T05:30:57.277Z,101849.86
2023-05-08T05:33:26.168Z,101849.07
2023-05-08T05:35:54.775Z,101851.69
2023-05-08T05:38:24.082Z,101853.23
2023-05-08T05:40:52.660Z,101857.70
2023-05-08T05:43:20.959Z,101856.50
2023-05-08T05:45:49.258Z,101852.80
2023-05-08T05:48:17.811Z,101853.64
2023-05-08T05:50:46.748Z,101856.02
2023-05-08T05:53:16.008Z,101863.83
2023-05-08T05:55:44.404Z,101867.19
2023-05-08T05:58:12.784Z,101866.30
2023-05-08T06:00:41.164Z,101867.79
2023-05-08T06:03:11.040Z,101873.07
2023-05-08T06:05:40.545Z,101877.41
2023-05-08T06:08:08.772Z,101876.95
2023-05-08T06:10:37.261Z,101879.18
2023-05-08T06:13:05.636Z,101882.04
2023-05-08T06:15:35.360Z,101887.80
2023-05-08T06:18:04.798Z,101894.52
2023-05-08T06:20:33.983Z,101893.98
2023-05-08T06:23:02.662Z,101894.45
2023-05-08T06:25:31.252Z,101898.39
2023-05-08T06:28:00.062Z,101894.82
2023-05-08T06:30:28.635Z,101892.09
2023-05-08T06:32:57.366Z,101894.64
2023-05-08T06:35:25.920Z,101897.70
2023-05-08T06:37:54.422Z,101899.70
2023-05-08T06:40:23.811Z,101900.63
2023-05-08T06:42:52.196Z,101901.05
2023-05-08T06:45:20.597Z,101904.41
2023-05-08T06:47:49.038Z,101906.14
2023-05-08T06:50:17.573Z,101900.40
2023-05-08T06:52:45.952Z,101916.33
2023-05-08T06:55:14.517Z,101913.70
2023-05-08T06:57:43.117Z,101915.35
2023-05-08T07:00:12.347Z,101917.61
2023-05-08T07:02:40.827Z,101917.77
2023-05-08T07:05:10.496Z,101924.16
2023-05-08T07:07:39.011Z,101924.10
2023-05-08T07:10:08.076Z,101928.48
2023-05-08T07:12:36.280Z,101934.61
2023-05-08T07:15:17.820Z,101934.73
2023-05-08T07:17:54.224Z,101936.17
2023-05-08T07:20:24.852Z,101937.84
2023-05-08T07:22:53.285Z,101943.55
2023-05-08T07:25:21.953Z,101943.83
2023-05-08T07:27:50.791Z,101946.42
2023-05-08T07:30:19.035Z,101944.26
2023-05-08T07:32:47.744Z,101947.91
2023-05-08T07:35:16.566Z,101948.52
2023-05-08T07:37:45.616Z,101950.31
2023-05-08T07:40:14.114Z,101951.64
2023-05-08T07:42:43.178Z,101951.48
2023-05-08T07:45:13.380Z,101957.11
2023-05-08T07:47:53.505Z,101957.24
2023-05-08T07:50:22.799Z,101960.67
2023-05-08T07:52:51.442Z,101958.58
2023-05-08T07:55:20.245Z,101961.77
2023-05-08T07:57:48.651Z,101965.84
2023-05-08T08:00:18.546Z,101970.77
2023-05-08T08:02:47.111Z,101965.41
2023-05-08T08:05:16.060Z,101969.77
2023-05-08T08:07:44.648Z,101967.33
2023-05-08T08:10:13.130Z,101965.67
2023-05-08T08:12:41.250Z,101967.52
2023-05-08T08:15:10.594Z,101966.10
2023-05-08T08:17:39.031Z,101968.26
2023-05-08T08:20:08.610Z,101969.02
2023-05-08T08:22:37.713Z,101972.85
2023-05-08T08:25:06.622Z,101972.46
2023-05-08T08:27:34.780Z,101976.11
2023-05-08T08:30:16.297Z,101976.64
2023-05-08T08:32:46.685Z,101978.66
2023-05-08T08:35:15.816Z,101981.73
2023-05-08T08:37:45.504Z,101980.73
2023-05-08T08:40:14.036Z,101981.68
2023-05-08T08:42:42.202Z,101980.80
2023-05-08T08:45:11.532Z,101981.24
2023-05-08T08:47:43.583Z,101982.91
2023-05-08T08:50:15.095Z,101987.25
2023-05-08T08:52:59.059Z,101989.70
2023-05-08T08:55:28.462Z,101994.97
2023-05-08T08:58:21.792Z,101991.67
2023-05-08T09:00:50.634Z,101994.66
2023-05-08T09:03:25.146Z,101988.20
2023-05-08T09:05:54.858Z,101983.43
2023-05-08T09:08:23.767Z,101987.10
2023-05-08T09:10:53.992Z,101991.89
2023-05-08T09:13:22.886Z,101999.02
2023-05-08T09:15:51.471Z,101999.02
2023-05-08T09:18:20.052Z,102002.73
2023-05-08T09:20:49.927Z,102004.72
2023-05-08T09:23:22.721Z,102004.35
2023-05-08T09:25:51.650Z,102003.78
2023-05-08T09:28:25.228Z,102008.17
2023-05-08T09:30:56.537Z,102007.95
2023-05-08T09:33:27.243Z,102007.90
2023-05-08T09:35:56.837Z,102012.01
2023-05-08T09:38:40.187Z,102015.06
2023-05-08T09:41:10.614Z,102017.14
2023-05-08T09:43:39.463Z,102011.88
2023-05-08T09:46:23.910Z,102013.08
2023-05-08T09:48:54.913Z,102013.80
2023-05-08T09:51:24.925Z,102013.64
2023-05-08T09:53:54.725Z,102015.02
2023-05-08T09:56:52.403Z,102013.19
2023-05-08T09:59:34.069Z,102011.63
2023-05-08T10:02:10.783Z,102016.56
2023-05-08T10:04:39.423Z,102016.64
2023-05-08T10:07:08.144Z,102017.86
2023-05-08T10:09:49.729Z,102019.68
2023-05-08T10:12:19.258Z,102019.22
2023-05-08T10:14:47.523Z,102018.73
2023-05-08T10:17:24.223Z,102024.94
2023-05-08T10:19:59.439Z,102027.85
2023-05-08T10:22:29.637Z,102035.92
2023-05-08T10:24:59.310Z,102041.36
2023-05-08T10:27:52.578Z,102040.89
2023-05-08T10:30:25.976Z,102042.52
2023-05-08T10:32:56.546Z,102042.43
2023-05-08T10:35:25.627Z,102043.83
2023-05-08T10:37:56.233Z,102047.50
2023-05-08T10:40:24.616Z,102050.71
2023-05-08T10:42:53.077Z,102054.39
2023-05-08T10:45:21.760Z,102055.36
2023-05-08T10:48:11.396Z,102056.15
2023-05-08T10:51:18.292Z,102053.77
2023-05-08T10:53:54.063Z,102056.77
2023-05-08T10:56:27.465Z,102056.44
2023-05-08T10:58:57.853Z,102059.29
2023-05-08T11:01:27.187Z,102064.04
2023-05-08T11:03:56.765Z,102066.08
2023-05-08T11:06:55.247Z,102068.45
2023-05-08T11:09:44.804Z,102064.48
2023-05-08T11:12:34.126Z,102066.41
2023-05-08T11:15:06.712Z,102070.85
2023-05-08T11:17:35.229Z,102070.96
2023-05-08T11:20:05.773Z,102079.19
2023-05-08T11:22:35.729Z,102072.57
2023-05-08T11:25:09.761Z,102079.05
2023-05-08T11:27:39.610Z,102076.23
2023-05-08T11:30:33.501Z,102074.84
2023-05-08T11:33:04.915Z,102078.59
2023-05-08T11:35:56.598Z,102079.28
2023-05-08T11:38:36.830Z,102076.16
2023-05-08T11:41:10.772Z,102073.96
2023-05-08T11:43:39.120Z,102081.48
2023-05-08T11:46:11.124Z,102082.48
2023-05-08T11:48:39.951Z,102079.75
2023-05-08T11:51:08.377Z,102077.27
2023-05-08T11:53:37.719Z,102075.81
2023-05-08T11:56:06.467Z,102076.71
2023-05-08T11:58:34.853Z,102076.56
2023-05-08T12:01:03.980Z,102072.61
2023-05-08T12:03:33.003Z,102076.06
2023-05-08T12:06:01.544Z,102072.69
2023-05-08T12:08:30.050Z,102067.24
2023-05-08T12:10:58.617Z,102062.13
2023-05-08T12:13:29.353Z,102061.70
2023-05-08T12:15:59.932Z,102058.05
2023-05-08T12:18:30.726Z,102057.13
2023-05-08T12:21:00.652Z,102052.63
2023-05-08T12:23:29.947Z,102050.99
2023-05-08T12:26:06.862Z,102047.59
2023-05-08T12:28:40.935Z,102045.89
2023-05-08T12:31:09.578Z,102046.30
2023-05-08T12:33:38.820Z,102040.11
2023-05-08T12:36:07.847Z,102038.33
2023-05-08T12:38:36.484Z,102037.70
2023-05-08T12:41:07.182Z,102038.38
2023-05-08T12:43:36.686Z,102041.98
2023-05-08T12:46:05.841Z,102042.89
2023-05-08T12:48:34.907Z,102044.70
2023-05-08T12:51:04.789Z,102050.64
2023-05-08T12:53:33.624Z,102041.80
2023-05-08T12:56:04.186Z,102049.74
2023-05-08T12:58:34.502Z,102052.06
2023-05-08T13:01:13.618Z,102050.44
2023-05-08T13:03:42.612Z,102046.79
2023-05-08T13:06:22.624Z,102051.56
2023-05-08T13:08:55.395Z,102049.95
2023-05-08T13:11:31.723Z,102049.92
2023-05-08T13:14:00.627Z,102051.39
2023-05-08T13:16:29.470Z,102047.65
2023-05-08T13:18:58.092Z,102044.67
2023-05-08T13:21:27.947Z,102040.38
2023-05-08T13:23:57.296Z,102039.42
2023-05-08T13:26:26.504Z,102039.97
2023-05-08T13:28:56.484Z,102046.37
2023-05-08T13:31:25.253Z,102050.92
2023-05-08T13:33:53.566Z,102046.40
2023-05-08T13:36:22.181Z,102047.64
2023-05-08T13:38:54.352Z,102056.23
2023-05-08T13:41:28.556Z,102058.34
2023-05-08T13:43:57.483Z,102060.15
2023-05-08T13:46:26.478Z,102062.25
2023-05-08T13:48:54.950Z,102059.56
2023-05-08T13:51:23.250Z,102063.71
2023-05-08T13:53:51.538Z,102063.84
2023-05-08T13:56:23.858Z,102069.56
2023-05-08T13:58:52.983Z,102070.46
2023-05-08T14:01:26.447Z,102070.55
2023-05-08T14:03:55.926Z,102066.64
2023-05-08T14:06:24.762Z,102067.23
2023-05-08T14:08:55.431Z,102068.11
2023-05-08T14:11:25.797Z,102072.74
2023-05-08T14:13:57.798Z,102069.21
2023-05-08T14:16:26.501Z,102067.45
2023-05-08T14:18:55.024Z,102065.09
2023-05-08T14:21:23.418Z,102066.71
2023-05-08T14:23:51.786Z,102068.07
2023-05-08T14:26:21.566Z,102069.60
2023-05-08T14:28:49.790Z,102063.80
2023-05-08T14:31:18.183Z,102069.59
2023-05-08T14:33:46.445Z,102066.41
2023-05-08T14:36:15.135Z,102074.50
2023-05-08T14:38:46.817Z,102077.68
2023-05-08T14:41:15.484Z,102076.45
2023-05-08T14:43:44.179Z,102080.81
2023-05-08T14:46:12.475Z,102083.88
2023-05-08T14:48:41.048Z,102084.67
2023-05-08T14:51:09.225Z,102086.55
2023-05-08T14:53:37.554Z,102089.55
2023-05-08T14:56:06.886Z,102088.59
2023-05-08T14:58:35.315Z,102091.27
2023-05-08T15:01:03.800Z,102096.06
2023-05-08T15:03:32.636Z,102097.32
2023-05-08T15:06:01.204Z,102100.92
2023-05-08T15:08:29.863Z,102102.56
2023-05-08T15:10:58.862Z,102103.73
2023-05-08T15:13:27.395Z,102102.55
2023-05-08T15:15:56.505Z,102108.05
2023-05-08T15:18:28.723Z,102106.82
2023-05-08T15:20:58.445Z,102107.79
2023-05-08T15:23:27.236Z,102107.54
2023-05-08T15:25:55.717Z,102107.95
2023-05-08T15:28:24.247Z,102107.50
2023-05-08T15:30:53.103Z,102105.01
2023-05-08T15:33:23.302Z,102103.56
2023-05-08T15:35:51.838Z,102108.83
2023-05-08T15:38:20.205Z,102110.08
2023-05-08T15:40:51.225Z,102110.06
2023-05-08T15:43:19.739Z,102112.38
2023-05-08T15:45:48.350Z,102111.84
2023-05-08T15:48:16.705Z,102114.32
2023-05-08T15:50:45.092Z,102111.23
2023-05-08T15:53:13.598Z,102111.30
2023-05-08T15:55:42.418Z,102115.22
2023-05-08T15:58:10.660Z,102117.65
2023-05-08T16:00:44.884Z,102120.41
2023-05-08T16:03:14.421Z,102124.06
2023-05-08T16:05:43.640Z,102127.36
2023-05-08T16:08:13.158Z,102128.48
2023-05-08T16:10:44.355Z,102126.41
2023-05-08T16:13:12.922Z,102125.77
2023-05-08T16:15:45.142Z,102126.33
2023-05-08T16:18:13.609Z,102130.21
2023-05-08T16:20:42.495Z,102137.76
2023-05-08T16:23:11.087Z,102141.79
2023-05-08T16:25:39.576Z,102147.40
2023-05-08T16:28:07.854Z,102144.85
2023-05-08T16:30:36.352Z,102152.06
2023-05-08T16:33:04.818Z,102154.33
2023-05-08T16:35:33.652Z,102158.15
2023-05-08T16:38:03.253Z,102160.71
2023-05-08T16:40:31.924Z,102156.12
2023-05-08T16:43:01.119Z,102156.77
2023-05-08T16:45:29.819Z,102155.17
2023-05-08T16:47:58.548Z,102158.29
2023-05-08T16:50:27.553Z,102160.08
2023-05-08T16:52:57.733Z,102166.16
2023-05-08T16:55:26.425Z,102169.73
2023-05-08T16:57:54.955Z,102173.72
2023-05-08T17:00:23.796Z,102173.45
2023-05-08T17:02:52.405Z,102176.58
2023-05-08T17:05:21.111Z,102180.20
2023-05-08T17:07:51.222Z,102181.61
2023-05-08T17:10:19.499Z,102181.99
2023-05-08T17:12:49.202Z,102188.25
2023-05-08T17:15:17.704Z,102185.24
2023-05-08T17:17:47.969Z,102193.89
2023-05-08T17:20:17.238Z,102198.58
2023-05-08T17:22:45.813Z,102201.52
2023-05-08T17:25:18.495Z,102207.12
2023-05-08T17:27:47.084Z,102209.42
2023-05-08T17:30:17.621Z,102210.38
2023-05-08T17:32:46.473Z,102212.27
2023-05-08T17:35:14.661Z,102212.13
2023-05-08T17:37:43.124Z,102216.30
2023-05-08T17:40:12.118Z,102217.33
2023-05-08T17:42:40.363Z,102218.72
2023-05-08T17:45:09.016Z,102221.07
2023-05-08T17:47:38.521Z,102222.45
2023-05-08T17:50:09.364Z,102222.39
2023-05-08T17:52:40.461Z,102224.16
2023-05-08T17:55:10.099Z,102228.22
2023-05-08T17:57:38.648Z,102232.64
2023-05-08T18:00:07.994Z,102233.25
2023-05-08T18:02:36.933Z,102235.98
2023-05-08T18:05:05.952Z,102235.02
2023-05-08T18:07:34.133Z,102239.25
2023-05-08T18:10:02.451Z,102240.46
2023-05-08T18:12:34.999Z,102242.86
2023-05-08T18:15:10.215Z,102250.30
2023-05-08T18:17:38.454Z,102247.29
2023-05-08T18:20:09.487Z,102249.39
2023-05-08T18:22:37.852Z,102254.44
2023-05-08T18:25:10.538Z,102258.48
2023-05-08T18:27:43.018Z,102261.72
2023-05-08T18:30:12.487Z,102263.27
2023-05-08T18:32:41.234Z,102262.11
2023-05-08T18:35:09.599Z,102262.79
2023-05-08T18:37:38.394Z,102262.02
2023-05-08T18:40:08.189Z,102266.95
2023-05-08T18:42:37.091Z,102274.45
2023-05-08T18:45:06.187Z,102275.81
2023-05-08T18:47:34.390Z,102274.38
2023-05-08T18:50:05.804Z,102278.38
2023-05-08T18:52:34.528Z,102281.27
2023-05-08T18:55:03.229Z,102283.18
2023-05-08T18:57:31.914Z,102280.44
2023-05-08T19:00:04.489Z,102276.20
2023-05-08T19:02:33.415Z,102276.11
2023-05-08T19:05:02.281Z,102275.52
2023-05-08T19:07:30.668Z,102278.34
2023-05-08T19:09:59.284Z,102282.77
2023-05-08T19:12:27.546Z,102280.50
2023-05-08T19:14:56.126Z,102280.18
2023-05-08T19:17:27.704Z,102280.43
2023-05-08T19:19:56.307Z,102280.30
2023-05-08T19:22:24.592Z,102279.60
2023-05-08T19:24:53.123Z,102279.48
2023-05-08T19:27:21.424Z,102276.73
2023-05-08T19:29:49.654Z,102278.42
2023-05-08T19:32:17.989Z,102276.65
2023-05-08T19:34:46.447Z,102275.17
2023-05-08T19:37:20.474Z,102276.25
2023-05-08T19:39:49.601Z,102271.67
2023-05-08T19:42:18.182Z,102271.83
2023-05-08T19:44:46.541Z,102266.36
2023-05-08T19:47:15.461Z,102270.70
2023-05-08T19:49:44.149Z,102270.52
2023-05-08T19:52:12.870Z,102269.85
2023-05-08T19:54:41.268Z,102268.52
2023-05-08T19:57:09.716Z,102266.19
2023-05-08T19:59:40.451Z,102265.90
2023-05-08T20:02:08.528Z,102268.67
2023-05-08T20:04:57.485Z,102265.65
2023-05-08T20:07:26.480Z,102263.52
2023-05-08T20:09:55.018Z,102267.86
2023-05-08T20:12:26.407Z,102262.54
2023-05-08T20:14:55.320Z,102258.23
2023-05-08T20:17:24.058Z,102258.17
2023-05-08T20:19:52.408Z,102255.33
2023-05-08T20:22:21.382Z,102246.97
2023-05-08T20:24:49.475Z,102244.53
2023-05-08T20:27:18.045Z,102241.69
2023-05-08T20:29:49.821Z,102240.59
2023-05-08T20:32:19.469Z,102238.25
2023-05-08T20:34:48.343Z,102233.70
2023-05-08T20:37:17.190Z,102235.02
2023-05-08T20:39:45.943Z,102230.27
2023-05-08T20:42:14.215Z,102224.83
2023-05-08T20:44:42.385Z,102221.79
2023-05-08T20:47:10.822Z,102221.14
2023-05-08T20:49:39.485Z,102220.16
2023-05-08T20:52:07.945Z,102221.93
2023-05-08T20:54:36.733Z,102220.98
2023-05-08T20:57:05.139Z,102221.97
2023-05-08T20:59:33.501Z,102224.73
2023-05-08T21:02:01.905Z,102221.27
2023-05-08T21:04:30.623Z,102223.17
2023-05-08T21:06:59.176Z,102221.11
2023-05-08T21:09:27.198Z,102220.83
2023-05-08T21:11:55.959Z,102222.43
2023-05-08T21:14:24.325Z,102229.45
2023-05-08T21:16:54.325Z,102229.55
2023-05-08T21:19:24.021Z,102233.40
2023-05-08T21:21:52.873Z,102230.94
2023-05-08T21:24:21.872Z,102229.08
2023-05-08T21:26:52.721Z,102230.23
2023-05-08T21:29:21.488Z,102230.13
2023-05-08T21:31:50.069Z,102225.94
2023-05-08T21:34:21.430Z,102226.83
2023-05-08T21:36:49.925Z,102227.37
2023-05-08T21:39:19.129Z,102224.45
2023-05-08T21:41:48.194Z,102225.33
2023-05-08T21:44:16.620Z,102221.99
2023-05-08T21:46:45.236Z,102225.11
2023-05-08T21:49:13.603Z,102224.82
2023-05-08T21:51:42.122Z,102216.52
2023-05-08T21:54:10.777Z,102223.66
2023-05-08T21:56:39.901Z,102219.20
2023-05-08T21:59:08.270Z,102218.02
2023-05-08T22:01:36.523Z,102218.16
2023-05-08T22:04:05.220Z,102216.14
2023-05-08T22:06:33.499Z,102222.12
2023-05-08T22:09:01.996Z,102215.05
2023-05-08T22:11:31.719Z,102220.11
2023-05-08T22:13:59.944Z,102218.05
2023-05-08T22:16:29.347Z,102215.14
2023-05-08T22:18:57.612Z,102218.51
2023-05-08T22:21:29.751Z,102211.23
2023-05-08T22:23:57.950Z,102209.52
2023-05-08T22:26:26.542Z,102204.77
2023-05-08T22:28:55.573Z,102204.54
2023-05-08T22:31:24.061Z,102205.25
2023-05-08T22:33:52.280Z,102199.29
2023-05-08T22:36:22.857Z,102197.30
2023-05-08T22:38:51.500Z,102196.80
2023-05-08T22:41:19.780Z,102200.30
2023-05-08T22:43:48.172Z,102196.58
2023-05-08T22:46:16.811Z,102198.04
2023-05-08T22:48:45.963Z,102201.98
2023-05-08T22:51:14.361Z,102201.51
2023-05-08T22:53:42.556Z,102195.23
2023-05-08T22:56:11.130Z,102196.60
2023-05-08T22:58:39.452Z,102196.32
2023-05-08T23:01:08.109Z,102189.61
2023-05-08T23:03:41.862Z,102190.77
2023-05-08T23:06:13.661Z,102192.02
2023-05-08T23:08:45.143Z,102185.97
2023-05-08T23:11:16.980Z,102183.77
2023-05-08T23:13:45.586Z,102185.33
2023-05-08T23:16:16.937Z,102183.05
2023-05-08T23:18:45.616Z,102179.54
2023-05-08T23:21:14.106Z,102177.98
2023-05-08T23:23:42.177Z,102175.84
2023-05-08T23:26:10.662Z,102177.77
2023-05-08T23:28:38.840Z,102177.33
2023-05-08T23:31:07.800Z,102174.36
2023-05-08T23:33:36.528Z,102173.58
2023-05-08T23:36:06.135Z,102172.05
2023-05-08T23:38:34.623Z,102168.79
2023-05-08T23:41:03.137Z,102161.74
2023-05-08T23:43:31.604Z,102167.86
2023-05-08T23:46:00.058Z,102166.75
2023-05-08T23:48:28.545Z,102166.65
2023-05-08T23:50:57.081Z,102160.01
2023-05-08T23:53:25.215Z,102156.00
2023-05-08T23:55:53.733Z,102154.76
2023-05-08T23:58:22.119Z,102156.83
